createdAt,value
2023-01-11T00:01:11.442Z,23.52
2023-01-11T00:03:38.929Z,24.88
2023-01-11T00:06:08.039Z,24.67
2023-01-11T00:08:34.904Z,24.33
2023-01-11T00:11:02.449Z,24.13
2023-01-11T00:13:30.421Z,23.17
2023-01-11T00:15:57.485Z,23.60
2023-01-11T00:18:24.401Z,24.63
2023-01-11T00:20:51.349Z,24.52
2023-01-11T00:23:18.349Z,23.67
2023-01-11T00:25:45.408Z,24.38
2023-01-11T00:28:12.395Z,23.95
2023-01-11T00:30:39.346Z,24.65
2023-01-11T00:33:06.245Z,22.83
2023-01-11T00:35:35.478Z,23.42
2023-01-11T00:38:02.339Z,23.75
2023-01-11T00:40:29.266Z,23.73
2023-01-11T00:43:14.816Z,23.10
2023-01-11T00:46:00.580Z,22.85
2023-01-11T00:48:27.518Z,22.15
2023-01-11T00:50:57.094Z,23.65
2023-01-11T00:53:23.909Z,22.65
2023-01-11T00:55:50.771Z,21.75
2023-01-11T00:58:17.756Z,22.52
2023-01-11T01:00:44.729Z,23.33
2023-01-11T01:03:11.636Z,22.23
2023-01-11T01:05:39.342Z,20.85
2023-01-11T01:08:06.698Z,21.30
2023-01-11T01:10:33.599Z,22.92
2023-01-11T01:13:21.209Z,21.80
2023-01-11T01:15:48.138Z,21.02
2023-01-11T01:18:15.048Z,21.58
2023-01-11T01:20:41.898Z,19.98
2023-01-11T01:23:08.838Z,21.17
2023-01-11T01:25:38.043Z,23.00
2023-01-11T01:28:05.167Z,21.42
2023-01-11T01:30:32.160Z,21.80
2023-01-11T01:32:59.144Z,22.42
2023-01-11T01:35:26.148Z,21.15
2023-01-11T01:37:53.207Z,22.27
2023-01-11T01:40:20.206Z,22.30
2023-01-11T01:42:47.171Z,28.90
2023-01-11T01:45:24.084Z,22.77
2023-01-11T01:47:58.005Z,21.77
2023-01-11T01:50:36.199Z,20.83
2023-01-11T01:53:08.739Z,21.67
2023-01-11T01:55:39.610Z,21.60
2023-01-11T01:58:10.672Z,20.33
2023-01-11T02:03:09.757Z,21.40
2023-01-11T02:05:36.718Z,21.15
2023-01-11T02:08:08.394Z,21.27
2023-01-11T02:10:35.357Z,20.05
2023-01-11T02:13:09.725Z,20.08
2023-01-11T02:15:37.006Z,20.60
2023-01-11T02:18:05.300Z,21.23
2023-01-11T02:20:59.347Z,20.38
2023-01-11T02:24:09.975Z,18.33
2023-01-11T02:27:00.758Z,22.55
2023-01-11T02:29:48.740Z,22.80
2023-01-11T02:32:25.579Z,21.25
2023-01-11T02:35:00.783Z,21.52
2023-01-11T02:37:27.592Z,20.52
2023-01-11T02:40:16.032Z,22.52
2023-01-11T02:43:12.713Z,19.67
2023-01-11T02:46:20.647Z,19.75
2023-01-11T02:48:53.336Z,20.63
2023-01-11T02:51:33.833Z,22.45
2023-01-11T02:54:08.442Z,22.27
2023-01-11T02:56:42.536Z,22.48
2023-01-11T02:59:15.698Z,21.45
2023-01-11T03:01:51.677Z,21.08
2023-01-11T03:04:30.691Z,21.73
2023-01-11T03:07:18.633Z,22.00
2023-01-11T03:09:57.230Z,21.08
2023-01-11T03:12:57.183Z,20.75
2023-01-11T03:15:30.376Z,21.10
2023-01-11T03:18:27.256Z,21.95
2023-01-11T03:21:24.591Z,21.55
2023-01-11T03:24:11.518Z,21.85
2023-01-11T03:26:39.096Z,22.00
2023-01-11T03:29:23.031Z,22.10
2023-01-11T03:31:53.854Z,22.52
2023-01-11T03:34:39.341Z,25.02
2023-01-11T03:37:31.235Z,23.75
2023-01-11T03:40:19.399Z,24.83
2023-01-11T03:43:09.411Z,23.80
2023-01-11T03:45:50.006Z,25.25
2023-01-11T03:48:51.884Z,26.40
2023-01-11T03:51:28.516Z,23.67
2023-01-11T03:54:02.011Z,22.88
2023-01-11T03:56:56.378Z,21.00
2023-01-11T03:59:23.283Z,22.20
2023-01-11T04:01:52.540Z,23.95
2023-01-11T04:04:19.430Z,23.90
2023-01-11T04:06:46.518Z,21.38
2023-01-11T04:09:13.367Z,22.65
2023-01-11T04:11:40.203Z,22.23
2023-01-11T04:14:07.212Z,22.90
2023-01-11T04:16:34.071Z,21.67
2023-01-11T04:19:02.982Z,22.02
2023-01-11T04:21:30.321Z,22.85
2023-01-11T04:23:57.316Z,22.77
2023-01-11T04:26:24.249Z,23.33
2023-01-11T04:28:53.401Z,22.70
2023-01-11T04:31:21.475Z,21.85
2023-01-11T04:33:48.501Z,22.75
2023-01-11T04:36:15.518Z,22.20
2023-01-11T04:38:42.367Z,19.08
2023-01-11T04:41:28.334Z,20.65
2023-01-11T04:43:56.525Z,20.33
2023-01-11T04:46:24.892Z,21.70
2023-01-11T04:48:53.302Z,21.02
2023-01-11T04:51:20.305Z,22.05
2023-01-11T04:53:51.811Z,21.10
2023-01-11T04:56:18.713Z,18.92
2023-01-11T04:58:46.280Z,21.02
2023-01-11T05:01:17.388Z,21.23
2023-01-11T05:03:45.484Z,21.88
2023-01-11T05:06:13.600Z,19.38
2023-01-11T05:08:41.176Z,22.30
2023-01-11T05:11:08.634Z,20.45
2023-01-11T05:13:45.136Z,21.98
2023-01-11T05:16:19.561Z,21.92
2023-01-11T05:18:49.290Z,21.92
2023-01-11T05:21:18.437Z,21.65
2023-01-11T05:23:45.461Z,19.77
2023-01-11T05:26:20.176Z,19.75
2023-01-11T05:28:47.259Z,20.33
2023-01-11T05:31:14.318Z,20.35
2023-01-11T05:33:41.539Z,19.40
2023-01-11T05:36:12.853Z,20.38
2023-01-11T05:38:40.031Z,19.92
2023-01-11T05:41:09.402Z,20.02
2023-01-11T05:43:56.101Z,19.90
2023-01-11T05:46:23.534Z,20.02
2023-01-11T05:48:50.815Z,20.30
2023-01-11T05:51:17.735Z,20.25
2023-01-11T05:53:47.391Z,19.67
2023-01-11T05:56:14.327Z,20.33
2023-01-11T05:58:41.266Z,20.67
2023-01-11T06:01:08.208Z,20.05
2023-01-11T06:03:35.165Z,18.80
2023-01-11T06:06:02.069Z,19.73
2023-01-11T06:08:29.025Z,19.70
2023-01-11T06:10:56.968Z,19.70
2023-01-11T06:13:28.302Z,19.75
2023-01-11T06:16:04.109Z,19.60
2023-01-11T06:18:33.197Z,19.65
2023-01-11T06:21:01.270Z,18.92
2023-01-11T06:23:29.793Z,19.27
2023-01-11T06:25:56.690Z,19.00
2023-01-11T06:28:23.557Z,15.07
2023-01-11T06:30:54.771Z,18.58
2023-01-11T06:33:23.720Z,18.40
2023-01-11T06:35:50.654Z,19.83
2023-01-11T06:38:19.383Z,18.58
2023-01-11T06:40:56.624Z,19.90
2023-01-11T06:43:25.212Z,18.85
2023-01-11T06:45:52.849Z,18.73
2023-01-11T06:48:20.921Z,19.27
2023-01-11T06:50:49.324Z,17.95
2023-01-11T06:53:16.410Z,19.63
2023-01-11T06:55:44.280Z,18.95
2023-01-11T06:58:11.175Z,19.05
2023-01-11T07:00:38.437Z,19.38
2023-01-11T07:03:06.724Z,17.55
2023-01-11T07:05:34.718Z,17.63
2023-01-11T07:08:01.984Z,18.60
2023-01-11T07:10:29.041Z,17.52
2023-01-11T07:12:55.974Z,16.63
2023-01-11T07:15:22.992Z,17.00
2023-01-11T07:17:55.192Z,18.38
2023-01-11T07:20:23.258Z,17.48
2023-01-11T07:22:51.148Z,17.98
2023-01-11T07:25:18.650Z,16.08
2023-01-11T07:27:45.602Z,16.73
2023-01-11T07:30:12.901Z,16.45
2023-01-11T07:32:40.413Z,15.48
2023-01-11T07:35:07.738Z,16.60
2023-01-11T07:37:37.723Z,16.30
2023-01-11T07:40:05.373Z,16.73
2023-01-11T07:42:50.707Z,16.45
2023-01-11T07:45:17.924Z,16.15
2023-01-11T07:47:44.820Z,15.25
2023-01-11T07:50:11.894Z,16.10
2023-01-11T07:52:38.855Z,16.45
2023-01-11T07:55:06.121Z,16.02
2023-01-11T07:57:34.936Z,14.30
2023-01-11T08:00:01.896Z,16.02
2023-01-11T08:02:28.889Z,15.85
2023-01-11T08:04:56.115Z,15.45
2023-01-11T08:07:23.005Z,16.35
2023-01-11T08:09:49.956Z,17.20
2023-01-11T08:12:36.249Z,16.17
2023-01-11T08:15:03.553Z,16.10
2023-01-11T08:17:30.697Z,17.30
2023-01-11T08:19:57.792Z,15.75
2023-01-11T08:22:24.785Z,15.25
2023-01-11T08:24:51.638Z,16.60
2023-01-11T08:27:18.538Z,15.10
2023-01-11T08:29:45.529Z,15.63
2023-01-11T08:32:13.330Z,15.63
2023-01-11T08:34:40.688Z,17.08
2023-01-11T08:37:07.603Z,17.17
2023-01-11T08:39:34.609Z,15.75
2023-01-11T08:42:03.199Z,16.33
2023-01-11T08:44:34.496Z,15.85
2023-01-11T08:47:03.023Z,15.98
2023-01-11T08:49:30.768Z,16.70
2023-01-11T08:51:57.890Z,16.38
2023-01-11T08:54:25.262Z,17.25
2023-01-11T08:56:52.200Z,16.50
2023-01-11T08:59:20.147Z,16.50
2023-01-11T09:01:47.475Z,16.58
2023-01-11T09:04:24.340Z,16.13
2023-01-11T09:06:52.909Z,15.93
2023-01-11T09:09:19.850Z,16.48
2023-01-11T09:11:56.689Z,17.27
2023-01-11T09:14:25.583Z,16.38
2023-01-11T09:16:53.529Z,16.10
2023-01-11T09:19:20.892Z,16.65
2023-01-11T09:21:48.492Z,16.88
2023-01-11T09:24:15.492Z,17.02
2023-01-11T09:26:43.634Z,15.57
2023-01-11T09:29:11.793Z,17.58
2023-01-11T09:31:38.884Z,17.60
2023-01-11T09:34:07.226Z,17.08
2023-01-11T09:36:36.350Z,17.50
2023-01-11T09:39:07.753Z,15.98
2023-01-11T09:42:10.340Z,17.02
2023-01-11T09:44:49.977Z,16.20
2023-01-11T09:47:36.749Z,16.45
2023-01-11T09:50:12.284Z,16.27
2023-01-11T09:52:45.296Z,16.55
2023-01-11T09:55:16.485Z,16.80
2023-01-11T09:58:00.690Z,16.33
2023-01-11T10:00:44.432Z,17.95
2023-01-11T10:03:33.218Z,17.05
2023-01-11T10:06:26.712Z,17.42
2023-01-11T10:18:33.080Z,17.42
2023-01-11T10:18:49.758Z,17.02
2023-01-11T10:21:23.515Z,18.55
2023-01-11T10:24:03.205Z,17.33
2023-01-11T10:26:42.135Z,20.83
2023-01-11T10:30:07.298Z,17.92
2023-01-11T10:32:54.404Z,18.40
2023-01-11T10:35:47.885Z,17.65
2023-01-11T10:38:50.099Z,17.08
2023-01-11T10:41:30.019Z,18.92
2023-01-11T10:44:13.121Z,17.38
2023-01-11T10:46:46.166Z,17.42
2023-01-11T10:49:34.576Z,18.10
2023-01-11T10:52:33.713Z,17.20
2023-01-11T10:55:04.154Z,16.73
2023-01-11T10:57:59.192Z,17.83
2023-01-11T11:00:51.667Z,17.17
2023-01-11T11:05:55.904Z,17.52
2023-01-11T11:08:34.802Z,18.20
2023-01-11T11:11:18.370Z,17.10
2023-01-11T11:14:14.674Z,16.02
2023-01-11T11:17:07.239Z,17.20
2023-01-11T11:19:35.849Z,14.18
2023-01-11T11:22:03.229Z,15.85
2023-01-11T11:24:41.558Z,15.55
2023-01-11T11:27:29.215Z,15.90
2023-01-11T11:29:57.257Z,16.05
2023-01-11T11:32:53.440Z,15.23
2023-01-11T11:35:31.126Z,17.17
2023-01-11T11:37:58.505Z,15.70
2023-01-11T11:40:38.165Z,15.88
2023-01-11T11:43:22.677Z,15.77
2023-01-11T11:45:58.744Z,15.93
2023-01-11T11:48:29.134Z,15.18
2023-01-11T11:51:01.404Z,15.88
2023-01-11T11:53:46.160Z,14.65
2023-01-11T11:56:30.022Z,15.05
2023-01-11T11:58:58.630Z,14.50
2023-01-11T12:01:33.619Z,15.18
2023-01-11T12:04:22.479Z,15.65
2023-01-11T12:07:12.678Z,14.50
2023-01-11T12:09:42.638Z,14.65
2023-01-11T12:12:19.353Z,16.10
2023-01-11T12:15:06.277Z,15.85
2023-01-11T12:17:33.259Z,15.23
2023-01-11T12:20:00.514Z,15.93
2023-01-11T12:22:29.272Z,13.73
2023-01-11T12:25:16.940Z,14.60
2023-01-11T12:28:02.759Z,15.95
2023-01-11T12:30:41.486Z,15.10
2023-01-11T12:33:22.430Z,15.82
2023-01-11T12:36:04.974Z,14.43
2023-01-11T12:38:41.649Z,14.55
2023-01-11T12:41:45.469Z,15.00
2023-01-11T12:44:40.653Z,14.27
2023-01-11T12:47:17.979Z,15.05
2023-01-11T12:50:00.840Z,14.30
2023-01-11T12:52:36.893Z,16.25
2023-01-11T12:55:39.315Z,15.60
2023-01-11T12:58:23.934Z,14.80
2023-01-11T13:01:12.956Z,15.10
2023-01-11T13:04:05.947Z,14.82
2023-01-11T13:07:09.737Z,13.98
2023-01-11T13:09:42.387Z,15.45
2023-01-11T13:12:29.820Z,14.07
2023-01-11T13:15:26.916Z,14.65
2023-01-11T13:18:19.254Z,15.10
2023-01-11T13:21:14.405Z,14.70
2023-01-11T13:23:53.505Z,16.83
2023-01-11T13:26:36.020Z,15.10
2023-01-11T13:29:06.784Z,15.10
2023-01-11T13:31:38.869Z,15.80
2023-01-11T13:34:28.803Z,14.23
2023-01-11T13:37:17.863Z,14.82
2023-01-11T13:39:44.796Z,14.23
2023-01-11T13:42:21.480Z,14.85
2023-01-11T13:45:04.721Z,15.65
2023-01-11T13:47:39.390Z,13.65
2023-01-11T13:50:30.287Z,14.98
2023-01-11T13:53:12.079Z,14.25
2023-01-11T13:55:57.611Z,14.45
2023-01-11T13:59:03.584Z,14.18
2023-01-11T14:01:56.353Z,15.75
2023-01-11T14:04:33.243Z,13.18
2023-01-11T14:07:13.414Z,14.50
2023-01-11T14:10:16.733Z,14.70
2023-01-11T14:13:07.934Z,14.27
2023-01-11T14:18:46.349Z,14.52
2023-01-11T14:21:30.720Z,14.60
2023-01-11T14:23:58.630Z,13.77
2023-01-11T14:26:40.808Z,14.55
2023-01-11T14:29:33.833Z,13.00
2023-01-11T14:32:24.602Z,14.23
2023-01-11T14:34:57.598Z,15.55
2023-01-11T14:37:31.063Z,14.15
2023-01-11T14:40:19.467Z,15.15
2023-01-11T14:43:05.435Z,14.32
2023-01-11T14:46:00.038Z,15.02
2023-01-11T14:48:47.311Z,16.00
2023-01-11T14:51:25.907Z,14.07
2023-01-11T14:54:10.658Z,16.40
2023-01-11T14:56:57.982Z,13.60
2023-01-11T14:59:39.893Z,14.05
2023-01-11T15:02:15.577Z,15.32
2023-01-11T15:04:55.509Z,14.98
2023-01-11T15:07:34.733Z,13.52
2023-01-11T15:10:25.873Z,14.63
2023-01-11T15:15:45.883Z,14.77
2023-01-11T15:18:20.084Z,14.88
2023-01-11T15:20:58.811Z,13.90
2023-01-11T15:23:26.346Z,14.18
2023-01-11T15:26:06.935Z,13.68
2023-01-11T15:28:56.094Z,14.75
2023-01-11T15:32:04.488Z,13.77
2023-01-11T15:34:31.427Z,15.38
2023-01-11T15:37:02.037Z,14.20
2023-01-11T15:39:53.637Z,14.63
2023-01-11T15:42:48.182Z,14.45
2023-01-11T15:46:00.751Z,15.30
2023-01-11T15:48:48.934Z,14.45
2023-01-11T15:51:58.147Z,13.35
2023-01-11T15:54:30.860Z,14.77
2023-01-11T15:57:23.096Z,14.55
2023-01-11T16:00:25.313Z,14.73
2023-01-11T16:03:25.991Z,14.85
2023-01-11T16:06:19.607Z,14.32
2023-01-11T16:08:51.565Z,14.60
2023-01-11T16:11:45.335Z,15.00
2023-01-11T16:14:39.746Z,15.07
2023-01-11T16:17:13.828Z,13.85
2023-01-11T16:19:44.849Z,13.77
2023-01-11T16:22:17.213Z,15.00
2023-01-11T16:24:47.555Z,14.18
2023-01-11T16:27:28.129Z,13.98
2023-01-11T16:29:56.063Z,15.25
2023-01-11T16:32:32.840Z,13.43
2023-01-11T16:35:16.172Z,15.38
2023-01-11T16:37:46.095Z,15.15
2023-01-11T16:40:18.418Z,17.38
2023-01-11T16:43:31.723Z,15.93
2023-01-11T16:46:03.650Z,14.25
2023-01-11T16:48:34.524Z,16.25
2023-01-11T16:51:25.950Z,16.45
2023-01-11T16:53:59.615Z,16.20
2023-01-11T16:56:43.995Z,15.20
2023-01-11T16:59:30.713Z,16.13
2023-01-11T17:02:09.859Z,15.80
2023-01-11T17:05:05.124Z,16.73
2023-01-11T17:10:26.168Z,16.40
2023-01-11T17:13:55.191Z,16.20
2023-01-11T17:16:34.989Z,18.40
2023-01-11T17:19:24.218Z,15.07
2023-01-11T17:22:09.525Z,14.32
2023-01-11T17:24:49.671Z,14.40
2023-01-11T17:27:47.244Z,15.60
2023-01-11T17:30:31.223Z,14.45
2023-01-11T17:33:11.561Z,15.38
2023-01-11T17:35:45.261Z,14.98
2023-01-11T17:38:20.818Z,15.45
2023-01-11T17:40:51.877Z,14.93
